createdAt,value
2023-01-07T00:00:20.383Z,8.15
2023-01-07T00:01:20.326Z,8.19
2023-01-07T00:02:20.399Z,8.15
2023-01-07T00:03:20.361Z,8.11
2023-01-07T00:04:20.347Z,8.18
2023-01-07T00:05:20.338Z,8.10
2023-01-07T00:06:20.320Z,8.19
2023-01-07T00:07:20.259Z,8.19
2023-01-07T00:08:20.255Z,8.18
2023-01-07T00:09:20.275Z,8.11
2023-01-07T00:10:20.287Z,8.08
2023-01-07T00:11:20.291Z,7.98
2023-01-07T00:12:20.200Z,7.93
2023-01-07T00:13:20.194Z,7.93
2023-01-07T00:14:20.192Z,7.93
2023-01-07T00:15:20.182Z,7.89
2023-01-07T00:16:20.297Z,7.95
2023-01-07T00:17:20.203Z,7.98
2023-01-07T00:18:20.136Z,7.98
2023-01-07T00:19:20.106Z,7.90
2023-01-07T00:20:20.115Z,7.98
2023-01-07T00:21:20.129Z,8.00
2023-01-07T00:22:20.130Z,8.01
2023-01-07T00:23:20.073Z,8.10
2023-01-07T00:24:20.189Z,8.15
2023-01-07T00:25:20.043Z,8.08
2023-01-07T00:26:20.086Z,8.07
2023-01-07T00:27:20.046Z,8.08
2023-01-07T00:28:20.056Z,8.10
2023-01-07T00:29:20.014Z,8.02
2023-01-07T00:30:20.005Z,8.01
2023-01-07T00:31:20.063Z,8.04
2023-01-07T00:32:19.985Z,7.98
2023-01-07T00:33:19.992Z,7.98
2023-01-07T00:34:20.046Z,8.02
2023-01-07T00:35:19.944Z,8.00
2023-01-07T00:36:19.943Z,7.98
2023-01-07T00:37:19.915Z,8.01
2023-01-07T00:38:19.925Z,7.98
2023-01-07T00:39:19.924Z,7.93
2023-01-07T00:40:20.485Z,7.95
2023-01-07T00:41:19.870Z,7.95
2023-01-07T00:42:19.891Z,7.95
2023-01-07T00:43:19.855Z,8.00
2023-01-07T00:44:19.866Z,7.95
2023-01-07T00:45:19.875Z,7.93
2023-01-07T00:46:19.883Z,7.97
2023-01-07T00:47:19.807Z,8.00
2023-01-07T00:48:19.791Z,7.92
2023-01-07T00:49:19.836Z,8.00
2023-01-07T00:50:19.806Z,7.92
2023-01-07T00:51:19.786Z,8.05
2023-01-07T00:52:19.752Z,7.97
2023-01-07T00:53:19.753Z,7.95
2023-01-07T00:54:19.767Z,7.98
2023-01-07T00:55:19.777Z,8.01
2023-01-07T00:56:28.083Z,7.97
2023-01-07T00:57:19.742Z,7.95
2023-01-07T00:58:19.681Z,7.89
2023-01-07T00:59:19.662Z,7.79
2023-01-07T01:00:19.664Z,7.83
2023-01-07T01:01:19.845Z,7.89
2023-01-07T01:02:19.683Z,7.90
2023-01-07T01:03:19.695Z,7.93
2023-01-07T01:04:19.620Z,7.93
2023-01-07T01:05:19.601Z,7.95
2023-01-07T01:06:19.653Z,7.95
2023-01-07T01:07:19.615Z,7.97
2023-01-07T01:08:19.596Z,7.98
2023-01-07T01:09:19.562Z,7.93
2023-01-07T01:10:19.559Z,7.97
2023-01-07T01:11:19.543Z,7.92
2023-01-07T01:12:19.698Z,7.92
2023-01-07T01:13:19.554Z,7.93
2023-01-07T01:14:19.498Z,7.90
2023-01-07T01:15:19.502Z,8.00
2023-01-07T01:16:19.538Z,7.90
2023-01-07T01:17:19.479Z,7.93
2023-01-07T01:18:19.467Z,7.98
2023-01-07T01:19:19.488Z,7.95
2023-01-07T01:20:19.457Z,7.87
2023-01-07T01:21:19.428Z,7.95
2023-01-07T01:22:19.446Z,7.86
2023-01-07T01:23:19.425Z,7.98
2023-01-07T01:24:19.415Z,7.90
2023-01-07T01:25:19.430Z,7.95
2023-01-07T01:26:19.378Z,8.00
2023-01-07T01:27:19.370Z,7.92
2023-01-07T01:28:19.500Z,7.89
2023-01-07T01:29:19.355Z,7.93
2023-01-07T01:30:19.345Z,7.97
2023-01-07T01:31:19.373Z,7.95
2023-01-07T01:32:19.311Z,7.93
2023-01-07T01:33:19.284Z,7.89
2023-01-07T01:34:19.319Z,7.87
2023-01-07T01:35:19.297Z,7.98
2023-01-07T01:36:19.283Z,7.97
2023-01-07T01:37:19.244Z,7.95
2023-01-07T01:38:19.254Z,8.01
2023-01-07T01:39:19.220Z,7.89
2023-01-07T01:40:19.226Z,7.97
2023-01-07T01:41:19.235Z,7.98
2023-01-07T01:42:19.224Z,7.97
2023-01-07T01:43:19.250Z,7.95
2023-01-07T01:44:19.211Z,7.98
2023-01-07T01:45:19.162Z,7.95
2023-01-07T01:46:19.195Z,7.97
2023-01-07T01:47:19.138Z,7.97
2023-01-07T01:48:19.120Z,7.90
2023-01-07T01:49:19.125Z,7.93
2023-01-07T01:50:19.230Z,7.97
2023-01-07T01:51:19.099Z,7.97
2023-01-07T01:52:19.106Z,7.93
2023-01-07T01:53:19.183Z,8.00
2023-01-07T01:54:19.079Z,8.01
2023-01-07T01:55:19.049Z,7.97
2023-01-07T01:56:19.062Z,7.98
2023-01-07T01:57:19.029Z,7.98
2023-01-07T01:58:19.044Z,7.98
2023-01-07T01:59:19.014Z,7.89
2023-01-07T02:00:19.211Z,7.89
2023-01-07T02:01:19.155Z,7.85
2023-01-07T02:02:19.043Z,7.83
2023-01-07T02:03:19.059Z,7.75
2023-01-07T02:04:18.958Z,7.82
2023-01-07T02:05:18.931Z,7.85
2023-01-07T02:06:18.933Z,7.80
2023-01-07T02:07:18.905Z,7.82
2023-01-07T02:08:18.935Z,7.87
2023-01-07T02:09:18.920Z,7.85
2023-01-07T02:10:18.928Z,7.71
2023-01-07T02:11:18.875Z,7.79
2023-01-07T02:12:18.867Z,7.75
2023-01-07T02:13:18.912Z,7.80
2023-01-07T02:14:18.851Z,7.86
2023-01-07T02:15:18.819Z,7.85
2023-01-07T02:16:19.038Z,7.90
2023-01-07T02:17:18.806Z,7.79
2023-01-07T02:18:18.800Z,7.82
2023-01-07T02:19:18.786Z,7.77
2023-01-07T02:20:18.788Z,7.86
2023-01-07T02:21:18.784Z,7.85
2023-01-07T02:22:18.747Z,7.87
2023-01-07T02:23:18.743Z,7.79
2023-01-07T02:24:18.768Z,7.75
2023-01-07T02:25:18.727Z,7.79
2023-01-07T02:26:18.760Z,7.82
2023-01-07T02:27:20.853Z,7.72
2023-01-07T02:28:18.674Z,7.72
2023-01-07T02:29:18.683Z,7.74
2023-01-07T02:30:18.680Z,7.85
2023-01-07T02:31:18.748Z,7.82
2023-01-07T02:32:18.778Z,7.83
2023-01-07T02:33:18.680Z,7.87
2023-01-07T02:34:18.668Z,7.82
2023-01-07T02:35:18.612Z,7.95
2023-01-07T02:36:18.584Z,7.86
2023-01-07T02:37:18.596Z,7.83
2023-01-07T02:38:18.606Z,7.83
2023-01-07T02:39:18.617Z,7.80
2023-01-07T02:40:18.553Z,7.87
2023-01-07T02:41:18.523Z,7.92
2023-01-07T02:42:18.515Z,7.89
2023-01-07T02:43:18.501Z,7.87
2023-01-07T02:44:18.501Z,7.80
2023-01-07T02:45:18.545Z,7.77
2023-01-07T02:46:18.494Z,7.86
2023-01-07T02:47:18.470Z,7.82
2023-01-07T02:48:18.568Z,7.85
2023-01-07T02:49:18.477Z,7.89
2023-01-07T02:50:18.453Z,7.72
2023-01-07T02:51:18.486Z,7.80
2023-01-07T02:52:18.432Z,7.83
2023-01-07T02:53:18.403Z,7.77
2023-01-07T02:54:18.397Z,7.83
2023-01-07T02:55:18.380Z,7.83
2023-01-07T02:56:18.397Z,7.83
2023-01-07T02:57:18.350Z,7.90
2023-01-07T02:58:18.377Z,7.80
2023-01-07T02:59:18.371Z,7.86
2023-01-07T03:00:18.427Z,7.83
2023-01-07T03:01:18.534Z,7.83
2023-01-07T03:02:18.294Z,7.83
2023-01-07T03:03:18.292Z,7.85
2023-01-07T03:04:18.438Z,7.80
2023-01-07T03:05:18.275Z,7.82
2023-01-07T03:06:18.303Z,7.86
2023-01-07T03:07:18.267Z,7.95
2023-01-07T03:08:18.252Z,7.83
2023-01-07T03:09:18.228Z,7.87
2023-01-07T03:10:18.239Z,7.83
2023-01-07T03:11:18.203Z,7.93
2023-01-07T03:12:18.186Z,7.90
2023-01-07T03:13:18.164Z,7.83
2023-01-07T03:14:18.189Z,7.85
2023-01-07T03:15:18.176Z,7.83
2023-01-07T03:16:18.254Z,7.85
2023-01-07T03:17:18.123Z,7.79
2023-01-07T03:18:18.125Z,7.85
2023-01-07T03:19:18.119Z,7.75
2023-01-07T03:20:18.228Z,7.85
2023-01-07T03:21:18.110Z,7.82
2023-01-07T03:22:18.081Z,7.85
2023-01-07T03:23:18.056Z,7.74
2023-01-07T03:24:18.072Z,7.89
2023-01-07T03:25:18.044Z,7.86
2023-01-07T03:26:18.104Z,7.74
2023-01-07T03:27:18.021Z,7.80
2023-01-07T03:28:18.012Z,7.85
2023-01-07T03:29:18.032Z,7.85
2023-01-07T03:30:18.010Z,7.83
2023-01-07T03:31:18.026Z,7.85
2023-01-07T03:32:17.954Z,7.82
2023-01-07T03:33:17.959Z,7.77
2023-01-07T03:34:17.963Z,7.82
2023-01-07T03:35:17.932Z,7.82
2023-01-07T03:36:18.034Z,7.83
2023-01-07T03:37:17.922Z,7.82
2023-01-07T03:38:17.917Z,7.82
2023-01-07T03:39:17.882Z,7.83
2023-01-07T03:40:17.897Z,7.72
2023-01-07T03:41:17.869Z,7.77
2023-01-07T03:42:17.896Z,7.83
2023-01-07T03:43:17.850Z,7.69
2023-01-07T03:44:17.873Z,7.77
2023-01-07T03:45:17.823Z,7.72
2023-01-07T03:46:17.803Z,7.71
2023-01-07T03:47:17.811Z,7.69
2023-01-07T03:48:17.794Z,7.71
2023-01-07T03:49:17.786Z,7.57
2023-01-07T03:50:17.771Z,7.55
2023-01-07T03:51:17.750Z,7.43
2023-01-07T03:52:17.855Z,7.50
2023-01-07T03:53:17.747Z,7.50
2023-01-07T03:54:17.720Z,7.43
2023-01-07T03:55:17.741Z,7.49
2023-01-07T03:56:17.696Z,7.61
2023-01-07T03:57:17.699Z,7.61
2023-01-07T03:58:17.685Z,7.60
2023-01-07T03:59:17.669Z,7.57
2023-01-07T04:00:17.668Z,7.61
2023-01-07T04:01:17.787Z,7.57
2023-01-07T04:02:17.672Z,7.57
2023-01-07T04:03:17.629Z,7.61
2023-01-07T04:04:17.715Z,7.60
2023-01-07T04:05:17.723Z,7.53
2023-01-07T04:06:17.652Z,7.64
2023-01-07T04:07:17.571Z,7.53
2023-01-07T04:08:17.664Z,7.58
2023-01-07T04:09:17.549Z,7.52
2023-01-07T04:10:17.578Z,7.58
2023-01-07T04:11:17.569Z,7.45
2023-01-07T04:12:17.512Z,7.48
2023-01-07T04:13:17.512Z,7.58
2023-01-07T04:14:17.558Z,7.52
2023-01-07T04:15:17.500Z,7.49
2023-01-07T04:16:17.548Z,7.49
2023-01-07T04:17:17.472Z,7.60
2023-01-07T04:18:17.453Z,7.61
2023-01-07T04:19:17.434Z,7.55
2023-01-07T04:20:17.467Z,7.64
2023-01-07T04:21:17.428Z,7.61
2023-01-07T04:22:17.415Z,7.57
2023-01-07T04:23:17.421Z,7.57
2023-01-07T04:24:17.509Z,7.57
2023-01-07T04:25:17.450Z,7.58
2023-01-07T04:26:17.375Z,7.58
2023-01-07T04:27:17.354Z,7.58
2023-01-07T04:28:17.348Z,7.53
2023-01-07T04:29:19.439Z,7.57
2023-01-07T04:30:17.337Z,7.55
2023-01-07T04:31:17.318Z,7.57
2023-01-07T04:32:17.299Z,7.60
2023-01-07T04:33:17.309Z,7.64
2023-01-07T04:34:17.281Z,7.75
2023-01-07T04:35:17.291Z,7.71
2023-01-07T04:36:17.260Z,7.68
2023-01-07T04:37:17.235Z,7.64
2023-01-07T04:38:17.224Z,7.74
2023-01-07T04:39:17.226Z,7.68
2023-01-07T04:40:17.327Z,7.68
2023-01-07T04:41:17.203Z,7.67
2023-01-07T04:42:17.179Z,7.74
2023-01-07T04:43:17.188Z,7.77
2023-01-07T04:44:17.220Z,7.75
2023-01-07T04:45:17.152Z,7.72
2023-01-07T04:46:17.195Z,7.74
2023-01-07T04:47:17.133Z,7.63
2023-01-07T04:48:17.145Z,7.67
2023-01-07T04:49:17.107Z,7.74
2023-01-07T04:50:17.105Z,7.74
2023-01-07T04:51:17.090Z,7.72
2023-01-07T04:52:17.068Z,7.72
2023-01-07T04:53:17.055Z,7.68
2023-01-07T04:54:17.116Z,7.75
2023-01-07T04:55:17.025Z,7.71
2023-01-07T04:56:17.160Z,7.72
2023-01-07T04:57:17.044Z,7.63
2023-01-07T04:58:17.047Z,7.64
2023-01-07T04:59:16.997Z,7.64
2023-01-07T05:00:16.989Z,7.77
2023-01-07T05:01:17.085Z,7.67
2023-01-07T05:02:16.998Z,7.68
2023-01-07T05:03:16.967Z,7.71
2023-01-07T05:04:17.053Z,7.69
2023-01-07T05:05:16.912Z,7.69
2023-01-07T05:06:16.901Z,7.67
2023-01-07T05:07:16.903Z,7.63
2023-01-07T05:08:16.898Z,7.71
2023-01-07T05:09:16.905Z,7.75
2023-01-07T05:10:16.892Z,7.64
2023-01-07T05:11:16.849Z,7.75
2023-01-07T05:12:16.976Z,7.72
2023-01-07T05:13:16.839Z,7.68
2023-01-07T05:14:16.837Z,7.71
2023-01-07T05:15:16.848Z,7.77
2023-01-07T05:16:16.848Z,7.71
2023-01-07T05:17:16.805Z,7.71
2023-01-07T05:18:16.806Z,7.60
2023-01-07T05:19:16.773Z,7.74
2023-01-07T05:20:16.775Z,7.58
2023-01-07T05:21:16.791Z,7.72
2023-01-07T05:22:16.734Z,7.75
2023-01-07T05:23:16.756Z,7.71
2023-01-07T05:24:16.712Z,7.71
2023-01-07T05:25:16.717Z,7.63
2023-01-07T05:26:16.717Z,7.63
2023-01-07T05:27:16.667Z,7.72
2023-01-07T05:28:16.776Z,7.67
2023-01-07T05:29:16.656Z,7.67
2023-01-07T05:30:16.646Z,7.67
2023-01-07T05:31:16.775Z,7.74
2023-01-07T05:32:16.657Z,7.74
2023-01-07T05:33:16.598Z,7.71
2023-01-07T05:34:16.633Z,7.74
2023-01-07T05:35:16.616Z,7.72
2023-01-07T05:36:16.613Z,7.77
2023-01-07T05:37:16.564Z,7.77
2023-01-07T05:38:16.611Z,7.71
2023-01-07T05:39:16.599Z,7.69
2023-01-07T05:40:16.540Z,7.77
2023-01-07T05:41:16.527Z,7.69
2023-01-07T05:42:16.515Z,7.63
2023-01-07T05:43:16.530Z,7.69
2023-01-07T05:44:16.528Z,7.71
2023-01-07T05:45:16.584Z,7.63
2023-01-07T05:46:16.531Z,7.68
2023-01-07T05:47:16.467Z,7.68
2023-01-07T05:48:16.458Z,7.55
2023-01-07T05:49:16.444Z,7.63
2023-01-07T05:50:16.407Z,7.60
2023-01-07T05:51:16.441Z,7.52
2023-01-07T05:52:16.396Z,7.61
2023-01-07T05:53:16.393Z,7.61
2023-01-07T05:54:16.421Z,7.50
2023-01-07T05:55:16.414Z,7.49
2023-01-07T05:56:16.414Z,7.50
2023-01-07T05:57:16.361Z,7.53
2023-01-07T05:58:16.341Z,7.45
2023-01-07T05:59:16.348Z,7.52
2023-01-07T06:00:16.431Z,7.53
2023-01-07T06:01:16.365Z,7.49
2023-01-07T06:02:16.338Z,7.48
2023-01-07T06:03:16.381Z,7.46
2023-01-07T06:04:16.262Z,7.46
2023-01-07T06:05:16.299Z,7.46
2023-01-07T06:06:16.279Z,7.43
2023-01-07T06:07:16.232Z,7.49
2023-01-07T06:08:16.231Z,7.53
2023-01-07T06:09:16.206Z,7.53
2023-01-07T06:10:16.212Z,7.45
2023-01-07T06:11:16.183Z,7.46
2023-01-07T06:12:16.219Z,7.48
2023-01-07T06:13:16.153Z,7.40
2023-01-07T06:14:16.200Z,7.32
2023-01-07T06:15:16.150Z,7.32
2023-01-07T06:16:16.349Z,7.30
2023-01-07T06:17:16.145Z,7.30
2023-01-07T06:18:16.126Z,7.24
2023-01-07T06:19:16.115Z,7.28
2023-01-07T06:20:16.183Z,7.25
2023-01-07T06:21:16.092Z,7.25
2023-01-07T06:22:16.082Z,7.27
2023-01-07T06:23:16.063Z,7.27
2023-01-07T06:24:16.091Z,7.25
2023-01-07T06:25:16.057Z,7.24
2023-01-07T06:26:16.027Z,7.27
2023-01-07T06:27:16.014Z,7.28
2023-01-07T06:28:16.029Z,7.31
2023-01-07T06:29:15.999Z,7.27
2023-01-07T06:30:15.962Z,7.31
2023-01-07T06:31:16.043Z,7.32
2023-01-07T06:32:16.067Z,7.16
2023-01-07T06:33:15.953Z,7.25
2023-01-07T06:34:16.003Z,7.24
2023-01-07T06:35:15.929Z,7.24
2023-01-07T06:36:15.900Z,7.30
2023-01-07T06:37:15.887Z,7.27
2023-01-07T06:38:15.916Z,7.24
2023-01-07T06:39:15.870Z,7.21
2023-01-07T06:40:15.907Z,7.27
2023-01-07T06:41:15.852Z,7.30
2023-01-07T06:42:15.844Z,7.30
2023-01-07T06:43:15.884Z,7.25
2023-01-07T06:44:15.841Z,7.25
2023-01-07T06:45:15.843Z,7.25
2023-01-07T06:46:15.915Z,7.16
2023-01-07T06:47:15.853Z,7.20
2023-01-07T06:48:15.899Z,7.23
2023-01-07T06:49:15.771Z,7.12
2023-01-07T06:50:15.778Z,7.15
2023-01-07T06:51:15.776Z,7.12
2023-01-07T06:52:15.787Z,7.12
2023-01-07T06:53:15.717Z,7.05
2023-01-07T06:54:15.703Z,7.06
2023-01-07T06:55:15.705Z,7.10
2023-01-07T06:56:15.715Z,7.05
2023-01-07T06:57:15.737Z,6.99
2023-01-07T06:58:15.690Z,7.02
2023-01-07T06:59:15.653Z,6.97
2023-01-07T07:00:15.668Z,7.02
2023-01-07T07:01:15.779Z,6.97
2023-01-07T07:02:15.712Z,7.02
2023-01-07T07:03:15.663Z,6.94
2023-01-07T07:04:15.781Z,6.95
2023-01-07T07:05:15.575Z,6.98
2023-01-07T07:06:15.601Z,6.92
2023-01-07T07:07:15.583Z,6.88
2023-01-07T07:08:15.595Z,6.95
2023-01-07T07:09:15.564Z,6.85
2023-01-07T07:10:15.522Z,6.85
2023-01-07T07:11:15.512Z,6.91
2023-01-07T07:12:15.527Z,6.92
2023-01-07T07:13:15.507Z,6.91
2023-01-07T07:14:15.526Z,6.84
2023-01-07T07:15:15.464Z,6.84
2023-01-07T07:16:15.526Z,6.81
2023-01-07T07:17:15.487Z,6.85
2023-01-07T07:18:15.470Z,6.85
2023-01-07T07:19:15.473Z,6.85
2023-01-07T07:20:15.528Z,6.79
2023-01-07T07:21:15.397Z,6.76
2023-01-07T07:22:15.382Z,6.71
2023-01-07T07:23:15.438Z,6.74
2023-01-07T07:24:15.378Z,6.76
2023-01-07T07:25:15.375Z,6.69
2023-01-07T07:26:15.348Z,6.70
2023-01-07T07:27:15.340Z,6.64
2023-01-07T07:28:15.322Z,6.70
2023-01-07T07:29:15.327Z,6.73
2023-01-07T07:30:15.367Z,6.61
2023-01-07T07:31:15.421Z,6.56
2023-01-07T07:32:15.270Z,6.56
2023-01-07T07:33:15.380Z,6.55
2023-01-07T07:34:15.351Z,6.52
2023-01-07T07:35:15.262Z,6.58
2023-01-07T07:36:15.351Z,6.59
2023-01-07T07:37:15.274Z,6.59
2023-01-07T07:38:15.201Z,6.52
2023-01-07T07:39:15.214Z,6.54
2023-01-07T07:40:15.192Z,6.52
2023-01-07T07:41:15.188Z,6.54
2023-01-07T07:42:15.205Z,6.52
2023-01-07T07:43:15.194Z,6.49
2023-01-07T07:44:15.152Z,6.43
2023-01-07T07:45:15.187Z,6.40
2023-01-07T07:46:15.158Z,6.38
2023-01-07T07:47:15.113Z,6.43
2023-01-07T07:48:15.148Z,6.33
2023-01-07T07:49:15.082Z,6.36
2023-01-07T07:50:15.081Z,6.40
2023-01-07T07:51:15.135Z,6.28
2023-01-07T07:52:15.186Z,6.28
2023-01-07T07:53:15.053Z,6.33
2023-01-07T07:54:15.038Z,6.28
2023-01-07T07:55:20.385Z,6.25
2023-01-07T07:56:16.024Z,6.30
2023-01-07T07:57:15.011Z,6.27
2023-01-07T07:58:15.003Z,6.12
2023-01-07T07:59:14.984Z,6.19
2023-01-07T08:00:14.963Z,6.17
2023-01-07T08:01:15.016Z,6.14
2023-01-07T08:02:15.032Z,6.15
2023-01-07T08:03:15.034Z,6.17
2023-01-07T08:04:14.953Z,6.12
2023-01-07T08:05:14.908Z,6.17
2023-01-07T08:06:14.918Z,6.22
2023-01-07T08:07:14.889Z,6.18
2023-01-07T08:08:15.988Z,6.21
2023-01-07T08:09:14.870Z,6.19
2023-01-07T08:10:14.847Z,6.18
2023-01-07T08:11:14.851Z,6.22
2023-01-07T08:12:14.832Z,6.25
2023-01-07T08:13:14.830Z,6.30
2023-01-07T08:14:14.817Z,6.33
2023-01-07T08:15:14.806Z,6.19
2023-01-07T08:16:14.867Z,6.18
2023-01-07T08:17:14.766Z,6.31
2023-01-07T08:18:14.767Z,6.30
2023-01-07T08:19:14.746Z,6.31
2023-01-07T08:20:14.752Z,6.30
2023-01-07T08:21:14.724Z,6.33
2023-01-07T08:22:14.728Z,6.22
2023-01-07T08:23:14.699Z,6.25
2023-01-07T08:24:14.822Z,6.31
2023-01-07T08:25:14.687Z,6.30
2023-01-07T08:26:14.683Z,6.30
2023-01-07T08:27:14.673Z,6.36
2023-01-07T08:28:14.669Z,6.28
2023-01-07T08:29:14.653Z,6.28
2023-01-07T08:30:14.644Z,6.30
2023-01-07T08:31:14.685Z,6.34
2023-01-07T08:32:14.630Z,6.41
2023-01-07T08:33:14.623Z,6.37
2023-01-07T08:34:14.593Z,6.46
2023-01-07T08:35:15.406Z,6.40
2023-01-07T08:36:22.645Z,6.49
2023-01-07T08:37:15.547Z,6.54
2023-01-07T08:38:14.568Z,6.56
2023-01-07T08:39:14.544Z,6.66
2023-01-07T08:40:14.666Z,6.48
2023-01-07T08:41:14.510Z,6.54
2023-01-07T08:42:14.498Z,6.46
2023-01-07T08:43:14.501Z,6.56
2023-01-07T08:44:14.468Z,6.59
2023-01-07T08:45:14.501Z,6.59
2023-01-07T08:46:14.456Z,6.61
2023-01-07T08:47:14.457Z,6.62
2023-01-07T08:48:14.433Z,6.67
2023-01-07T08:49:14.443Z,6.74
2023-01-07T08:50:14.419Z,6.71
2023-01-07T08:51:14.459Z,6.79
2023-01-07T08:52:14.402Z,6.79
2023-01-07T08:53:14.365Z,6.80
2023-01-07T08:54:14.372Z,6.80
2023-01-07T08:55:14.365Z,6.87
2023-01-07T08:56:14.508Z,6.87
2023-01-07T08:57:14.319Z,6.81
2023-01-07T08:58:14.329Z,6.88
2023-01-07T08:59:14.305Z,6.85
2023-01-07T09:00:15.832Z,6.88
2023-01-07T09:01:14.395Z,6.87
2023-01-07T09:02:14.403Z,6.98
2023-01-07T09:03:14.254Z,6.91
2023-01-07T09:04:14.261Z,6.91
2023-01-07T09:05:14.300Z,6.88
2023-01-07T09:06:14.235Z,6.89
2023-01-07T09:07:14.216Z,6.92
2023-01-07T09:08:14.194Z,6.94
2023-01-07T09:09:14.219Z,6.98
2023-01-07T09:10:14.201Z,6.99
2023-01-07T09:11:14.184Z,7.03
2023-01-07T09:12:14.305Z,7.06
2023-01-07T09:13:14.156Z,7.03
2023-01-07T09:14:14.133Z,7.03
2023-01-07T09:15:14.144Z,7.10
2023-01-07T09:16:14.178Z,7.07
2023-01-07T09:17:14.142Z,7.15
2023-01-07T09:18:14.088Z,7.16
2023-01-07T09:19:14.088Z,7.12
2023-01-07T09:20:14.064Z,7.15
2023-01-07T09:21:14.072Z,7.16
2023-01-07T09:22:14.052Z,7.15
2023-01-07T09:23:14.060Z,7.16
2023-01-07T09:24:14.061Z,7.23
2023-01-07T09:25:14.032Z,7.13
2023-01-07T09:26:14.033Z,7.20
2023-01-07T09:27:13.993Z,7.16
2023-01-07T09:28:14.106Z,7.23
2023-01-07T09:29:13.962Z,7.30
2023-01-07T09:30:13.953Z,7.28
2023-01-07T09:31:13.984Z,7.28
2023-01-07T09:32:13.947Z,7.34
2023-01-07T09:33:13.954Z,7.34
2023-01-07T09:34:13.917Z,7.31
2023-01-07T09:35:13.900Z,7.39
2023-01-07T09:36:13.883Z,7.39
2023-01-07T09:37:13.872Z,7.39
2023-01-07T09:38:13.888Z,7.35
2023-01-07T09:39:13.889Z,7.35
2023-01-07T09:40:13.868Z,7.45
2023-01-07T09:41:13.841Z,7.37
2023-01-07T09:42:13.813Z,7.37
2023-01-07T09:43:13.835Z,7.37
2023-01-07T09:44:13.957Z,7.42
2023-01-07T09:45:13.810Z,7.48
2023-01-07T09:46:13.792Z,7.43
2023-01-07T09:47:13.782Z,7.46
2023-01-07T09:48:13.792Z,7.46
2023-01-07T09:49:13.750Z,7.43
2023-01-07T09:50:13.741Z,7.53
2023-01-07T09:51:13.745Z,7.52
2023-01-07T09:52:13.711Z,7.55
2023-01-07T09:53:13.697Z,7.55
2023-01-07T09:54:13.728Z,7.60
2023-01-07T09:55:13.698Z,7.61
2023-01-07T09:56:13.677Z,7.53
2023-01-07T09:57:13.678Z,7.68
2023-01-07T09:58:13.650Z,7.64
2023-01-07T09:59:13.639Z,7.71
2023-01-07T10:00:13.731Z,7.68
2023-01-07T10:01:13.738Z,7.67
2023-01-07T10:02:13.628Z,7.64
2023-01-07T10:03:13.624Z,7.71
2023-01-07T10:04:13.711Z,7.79
2023-01-07T10:05:13.559Z,7.71
2023-01-07T10:06:13.563Z,7.69
2023-01-07T10:07:13.546Z,7.80
2023-01-07T10:08:31.386Z,7.80
2023-01-07T10:09:14.546Z,7.75
2023-01-07T10:10:13.555Z,7.87
2023-01-07T10:11:13.496Z,7.86
2023-01-07T10:12:13.499Z,7.85
2023-01-07T10:13:13.485Z,7.95
2023-01-07T10:14:13.477Z,7.90
2023-01-07T10:15:13.461Z,7.97
2023-01-07T10:16:13.594Z,7.97
2023-01-07T10:17:13.477Z,8.00
2023-01-07T10:18:13.455Z,7.98
2023-01-07T10:19:13.410Z,8.05
2023-01-07T10:20:13.427Z,8.04
2023-01-07T10:21:13.381Z,8.05
2023-01-07T10:22:13.369Z,8.05
2023-01-07T10:23:13.376Z,8.19
2023-01-07T10:24:13.381Z,8.19
2023-01-07T10:25:13.366Z,8.22
2023-01-07T10:26:13.366Z,8.34
2023-01-07T10:27:13.413Z,8.34
2023-01-07T10:28:13.311Z,8.36
2023-01-07T10:29:13.322Z,8.45
2023-01-07T10:30:13.315Z,8.40
2023-01-07T10:31:13.356Z,8.43
2023-01-07T10:32:13.406Z,8.52
2023-01-07T10:33:13.245Z,8.52
2023-01-07T10:34:13.243Z,8.53
2023-01-07T10:35:13.226Z,8.56
2023-01-07T10:36:13.247Z,8.65
2023-01-07T10:37:13.212Z,8.62
2023-01-07T10:38:13.238Z,8.63
2023-01-07T10:39:13.179Z,8.52
2023-01-07T10:40:13.179Z,8.56
2023-01-07T10:41:13.162Z,8.63
2023-01-07T10:42:13.166Z,8.68
2023-01-07T10:43:13.170Z,8.66
2023-01-07T10:44:13.131Z,8.63
2023-01-07T10:45:13.136Z,8.70
2023-01-07T10:46:13.185Z,8.80
2023-01-07T10:47:13.136Z,8.76
2023-01-07T10:48:13.221Z,8.84
2023-01-07T10:49:13.107Z,8.79
2023-01-07T10:50:13.115Z,8.74
2023-01-07T10:51:13.050Z,8.73
2023-01-07T10:52:13.038Z,8.83
2023-01-07T10:53:13.051Z,8.81
2023-01-07T10:54:13.034Z,8.80
2023-01-07T10:55:13.007Z,8.83
2023-01-07T10:56:13.016Z,8.86
2023-01-07T10:57:21.101Z,8.86
2023-01-07T10:58:12.979Z,8.95
2023-01-07T10:59:15.004Z,8.95
2023-01-07T11:00:12.982Z,8.91
2023-01-07T11:01:13.031Z,8.98
2023-01-07T11:02:13.235Z,8.83
2023-01-07T11:03:13.003Z,8.84
2023-01-07T11:04:13.033Z,8.83
2023-01-07T11:05:14.763Z,8.89
2023-01-07T11:06:12.916Z,8.79
2023-01-07T11:07:12.883Z,8.79
2023-01-07T11:08:12.864Z,8.83
2023-01-07T11:09:12.846Z,8.83
2023-01-07T11:10:12.854Z,8.86
2023-01-07T11:11:12.826Z,8.84
2023-01-07T11:12:12.815Z,8.81
2023-01-07T11:13:12.813Z,8.94
2023-01-07T11:14:12.870Z,8.95
2023-01-07T11:15:12.783Z,8.98
2023-01-07T11:16:12.790Z,8.96
2023-01-07T11:17:12.781Z,8.94
2023-01-07T11:18:12.746Z,9.08
2023-01-07T11:19:12.780Z,9.04
2023-01-07T11:20:12.775Z,9.10
2023-01-07T11:21:43.384Z,9.10
2023-01-07T11:22:13.700Z,9.17
2023-01-07T11:23:12.691Z,9.11
2023-01-07T11:24:12.682Z,9.18
2023-01-07T11:25:12.713Z,9.20
2023-01-07T11:26:12.679Z,9.20
2023-01-07T11:27:12.677Z,9.20
2023-01-07T11:28:12.659Z,9.24
2023-01-07T11:29:12.621Z,9.23
2023-01-07T11:30:12.676Z,9.26
2023-01-07T11:31:12.612Z,9.23
2023-01-07T11:32:12.624Z,9.31
2023-01-07T11:33:12.612Z,9.23
2023-01-07T11:34:12.598Z,9.24
2023-01-07T11:35:12.557Z,9.28
2023-01-07T11:36:12.692Z,9.31
2023-01-07T11:37:12.558Z,9.29
2023-01-07T11:38:12.538Z,9.33
2023-01-07T11:39:12.546Z,9.29
2023-01-07T11:40:12.543Z,9.32
2023-01-07T11:41:12.488Z,9.36
2023-01-07T11:42:12.556Z,9.38
2023-01-07T11:43:12.471Z,9.35
2023-01-07T11:44:12.475Z,9.36
2023-01-07T11:45:12.482Z,9.40
2023-01-07T11:46:20.834Z,9.36
2023-01-07T11:47:13.451Z,9.35
2023-01-07T11:48:12.426Z,9.39
2023-01-07T11:49:12.412Z,9.42
2023-01-07T11:50:12.406Z,9.43
2023-01-07T11:51:12.411Z,9.40
2023-01-07T11:52:12.489Z,9.35
2023-01-07T11:53:12.433Z,9.46
2023-01-07T11:54:12.394Z,9.38
2023-01-07T11:55:12.359Z,9.38
2023-01-07T11:56:12.340Z,9.47
2023-01-07T11:57:12.328Z,9.47
2023-01-07T11:58:28.585Z,9.51
2023-01-07T11:59:13.306Z,9.56
2023-01-07T12:00:12.289Z,9.57
2023-01-07T12:01:12.393Z,9.47
2023-01-07T12:02:12.351Z,9.48
2023-01-07T12:03:12.297Z,9.51
2023-01-07T12:04:12.235Z,9.57
2023-01-07T12:05:12.234Z,9.58
2023-01-07T12:06:12.217Z,9.57
2023-01-07T12:07:12.248Z,9.60
2023-01-07T12:08:12.340Z,9.42
2023-01-07T12:09:12.175Z,9.58
2023-01-07T12:10:12.168Z,9.50
2023-01-07T12:11:12.154Z,9.56
2023-01-07T12:12:12.156Z,9.53
2023-01-07T12:13:12.165Z,9.48
2023-01-07T12:14:12.120Z,9.51
2023-01-07T12:15:12.119Z,9.47
2023-01-07T12:16:12.137Z,9.48
2023-01-07T12:17:12.088Z,9.33
2023-01-07T12:18:12.119Z,9.32
2023-01-07T12:19:12.101Z,9.36
2023-01-07T12:20:12.108Z,9.39
2023-01-07T12:21:12.128Z,9.42
2023-01-07T12:22:12.044Z,9.40
2023-01-07T12:23:12.027Z,9.42
2023-01-07T12:24:12.155Z,9.40
2023-01-07T12:25:12.028Z,9.42
2023-01-07T12:26:12.001Z,9.46
2023-01-07T12:27:11.987Z,9.43
2023-01-07T12:28:11.967Z,9.57
2023-01-07T12:29:11.988Z,9.48
2023-01-07T12:30:11.995Z,9.61
2023-01-07T12:31:12.025Z,9.54
2023-01-07T12:32:11.921Z,9.58
2023-01-07T12:33:11.917Z,9.61
2023-01-07T12:34:11.939Z,9.65
2023-01-07T12:35:14.693Z,9.64
2023-01-07T12:36:11.901Z,9.66
2023-01-07T12:37:11.877Z,9.65
2023-01-07T12:38:11.863Z,9.66
2023-01-07T12:39:11.862Z,9.72
2023-01-07T12:40:11.959Z,9.72
2023-01-07T12:41:11.830Z,9.65
2023-01-07T12:42:11.957Z,9.66
2023-01-07T12:43:11.796Z,9.66
2023-01-07T12:44:11.821Z,9.66
2023-01-07T12:45:11.787Z,9.75
2023-01-07T12:46:11.804Z,9.74
2023-01-07T12:47:31.354Z,9.75
2023-01-07T12:48:12.739Z,9.72
2023-01-07T12:49:11.747Z,9.74
2023-01-07T12:50:11.749Z,9.74
2023-01-07T12:51:11.714Z,9.79
2023-01-07T12:52:11.732Z,9.78
2023-01-07T12:53:11.711Z,9.72
2023-01-07T12:54:11.671Z,9.74
2023-01-07T12:55:11.657Z,9.68
2023-01-07T12:56:11.785Z,9.81
2023-01-07T12:57:11.672Z,9.64
2023-01-07T12:58:11.658Z,9.65
2023-01-07T12:59:11.647Z,9.71
2023-01-07T13:00:12.704Z,9.72
2023-01-07T13:01:11.765Z,9.58
2023-01-07T13:02:11.642Z,9.79
2023-01-07T13:03:11.625Z,9.69
2023-01-07T13:04:11.579Z,9.76
2023-01-07T13:05:11.550Z,9.69
2023-01-07T13:06:11.554Z,9.75
2023-01-07T13:07:11.550Z,9.61
2023-01-07T13:08:11.522Z,9.81
2023-01-07T13:09:11.534Z,9.75
2023-01-07T13:10:11.566Z,9.64
2023-01-07T13:11:11.486Z,9.69
2023-01-07T13:12:40.601Z,9.64
2023-01-07T13:13:14.706Z,9.72
2023-01-07T13:14:11.480Z,9.71
2023-01-07T13:15:11.472Z,9.79
2023-01-07T13:16:11.553Z,9.72
2023-01-07T13:17:11.442Z,9.81
2023-01-07T13:18:11.424Z,9.79